Terminal Aerodrome Forecast
Issued by NWS Cleveland, OH

Home | Current Version | Previous Version | Graphics & Text | Print | Product List | Glossary Off
Versions: 1 2 3 4 5 6 7 8 9 10 11 12 13 14 15 16

000
FTUS41 KCLE 240529
TAFYNG
TAF
KYNG 240529Z 2406/2506 VRB03KT P6SM SCT200
      TEMPO 2410/2412 5SM BR
     FM241400 20008KT P6SM SCT035 BKN200
     FM241900 25008KT P6SM SCT045 BKN200
     FM250100 20005KT P6SM FEW120 BKN200=

USA.gov is the U.S. government's official web portal to all federal, state and local government web resources and services.